createdAt,value
2019-03-04T00:02:15.693Z,10.21
2019-03-04T00:04:46.395Z,10.12
2019-03-04T00:07:17.947Z,10.10
2019-03-04T00:09:49.630Z,10.01
2019-03-04T00:12:19.928Z,10.02
2019-03-04T00:14:51.909Z,10.06
2019-03-04T00:17:23.244Z,9.95
2019-03-04T00:19:53.778Z,9.90
2019-03-04T00:22:24.979Z,10.00
2019-03-04T00:24:55.467Z,10.04
2019-03-04T00:27:26.808Z,9.95
2019-03-04T00:29:58.165Z,9.93
2019-03-04T00:32:28.693Z,9.93
2019-03-04T00:34:59.021Z,9.98
2019-03-04T00:37:29.448Z,9.96
2019-03-04T00:39:59.720Z,10.03
2019-03-04T00:42:30.953Z,9.95
2019-03-04T00:45:01.359Z,10.03
2019-03-04T00:47:33.634Z,9.99
2019-03-04T00:50:06.171Z,10.04
2019-03-04T00:52:37.361Z,9.95
2019-03-04T00:55:08.205Z,10.06
2019-03-04T00:57:39.590Z,10.05
2019-03-04T01:00:17.152Z,10.13
2019-03-04T01:02:47.838Z,10.16
2019-03-04T01:05:18.625Z,10.21
2019-03-04T01:07:49.156Z,10.25
2019-03-04T01:10:19.592Z,10.25
2019-03-04T01:12:50.023Z,10.28
2019-03-04T01:15:24.256Z,10.32
2019-03-04T01:17:54.643Z,10.41
2019-03-04T01:20:26.223Z,10.43
2019-03-04T01:22:56.943Z,10.44
2019-03-04T01:25:27.467Z,10.55
2019-03-04T01:27:57.987Z,10.57
2019-03-04T01:30:30.005Z,10.59
2019-03-04T01:33:01.555Z,10.63
2019-03-04T01:35:31.876Z,10.66
2019-03-04T01:38:02.411Z,10.75
2019-03-04T01:40:32.962Z,10.78
2019-03-04T01:43:05.114Z,10.79
2019-03-04T01:45:36.770Z,10.81
2019-03-04T01:48:07.100Z,10.82
2019-03-04T01:50:38.478Z,10.76
2019-03-04T01:53:08.824Z,10.76
2019-03-04T01:55:41.976Z,10.71
2019-03-04T01:58:13.431Z,10.76
2019-03-04T02:00:44.985Z,10.67
2019-03-04T02:03:15.292Z,10.71
2019-03-04T02:05:46.564Z,10.74
2019-03-04T02:08:18.634Z,10.67
2019-03-04T02:10:51.705Z,10.72
2019-03-04T02:13:22.166Z,10.77
2019-03-04T02:15:53.539Z,10.70
2019-03-04T02:18:25.608Z,10.72
2019-03-04T02:20:55.903Z,10.78
2019-03-04T02:23:26.326Z,10.77
2019-03-04T02:26:29.635Z,10.80
2019-03-04T02:29:00.353Z,10.74
2019-03-04T02:31:30.763Z,10.76
2019-03-04T02:34:01.524Z,10.73
2019-03-04T02:36:31.851Z,10.73
2019-03-04T02:39:04.324Z,10.74
2019-03-04T02:41:34.445Z,10.75
2019-03-04T02:44:06.929Z,10.72
2019-03-04T02:46:38.953Z,10.74
2019-03-04T02:49:09.217Z,10.79
2019-03-04T02:51:39.991Z,10.74
2019-03-04T02:54:11.533Z,10.71
2019-03-04T02:56:42.756Z,10.79
2019-03-04T02:59:13.191Z,10.87
2019-03-04T03:01:43.457Z,10.88
2019-03-04T03:04:14.899Z,10.87
2019-03-04T03:06:45.306Z,10.89
2019-03-04T03:09:16.612Z,10.92
2019-03-04T03:11:47.105Z,10.85
2019-03-04T03:14:17.416Z,10.85
2019-03-04T03:16:47.889Z,10.98
2019-03-04T03:19:18.799Z,10.94
2019-03-04T03:21:49.178Z,10.95
2019-03-04T03:24:19.572Z,10.94
2019-03-04T03:26:50.092Z,10.96
2019-03-04T03:29:20.547Z,10.98
2019-03-04T03:31:50.951Z,10.91
2019-03-04T03:34:21.653Z,10.97
2019-03-04T03:36:53.439Z,10.90
2019-03-04T03:39:24.908Z,10.98
2019-03-04T03:41:56.130Z,10.96
2019-03-04T03:44:27.401Z,10.92
2019-03-04T03:47:00.292Z,11.00
2019-03-04T03:49:30.720Z,11.01
2019-03-04T03:52:03.299Z,10.98
2019-03-04T03:54:34.826Z,10.99
2019-03-04T03:57:06.930Z,11.01
2019-03-04T03:59:39.906Z,11.02
2019-03-04T04:02:11.742Z,11.10
2019-03-04T04:04:42.105Z,11.06
2019-03-04T04:07:15.195Z,11.09
2019-03-04T04:09:46.324Z,11.09
2019-03-04T04:12:17.060Z,11.11
2019-03-04T04:14:48.951Z,11.03
2019-03-04T04:17:20.186Z,10.98
2019-03-04T04:19:52.903Z,10.91
2019-03-04T04:22:22.909Z,10.95
2019-03-04T04:24:56.398Z,11.00
2019-03-04T04:27:26.814Z,11.03
2019-03-04T04:29:58.800Z,11.06
2019-03-04T04:32:30.151Z,11.03
2019-03-04T04:35:02.319Z,10.99
2019-03-04T04:37:33.479Z,10.98
2019-03-04T04:40:05.290Z,10.92
2019-03-04T04:42:35.676Z,10.89
2019-03-04T04:45:06.407Z,10.79
2019-03-04T04:47:38.770Z,10.83
2019-03-04T04:50:11.931Z,10.90
2019-03-04T04:52:42.579Z,11.00
2019-03-04T04:55:12.927Z,11.02
2019-03-04T04:57:47.516Z,10.97
2019-03-04T05:00:20.545Z,10.87
2019-03-04T05:02:51.286Z,10.94
2019-03-04T05:05:24.312Z,10.88
2019-03-04T05:07:55.316Z,10.88
2019-03-04T05:10:25.836Z,10.85
2019-03-04T05:12:57.818Z,10.83
2019-03-04T05:15:29.612Z,10.78
2019-03-04T05:18:00.446Z,10.84
2019-03-04T05:20:30.818Z,10.78
2019-03-04T05:23:03.223Z,10.74
2019-03-04T05:25:33.688Z,10.74
2019-03-04T05:28:04.065Z,10.78
2019-03-04T05:30:34.534Z,10.67
2019-03-04T05:33:06.794Z,10.75
2019-03-04T05:35:38.243Z,10.75
2019-03-04T05:38:10.232Z,10.79
2019-03-04T05:40:40.700Z,10.79
2019-03-04T05:43:11.235Z,10.74
2019-03-04T05:45:41.768Z,10.79
2019-03-04T05:48:13.365Z,10.80
2019-03-04T05:50:45.664Z,10.88
2019-03-04T05:53:17.795Z,10.85
2019-03-04T05:55:48.082Z,10.83
2019-03-04T05:58:20.307Z,10.88
2019-03-04T06:01:22.268Z,10.92
2019-03-04T06:03:54.731Z,10.91
2019-03-04T06:06:43.079Z,10.94
2019-03-04T06:09:15.241Z,11.03
2019-03-04T06:11:45.773Z,10.99
2019-03-04T06:14:16.426Z,11.02
2019-03-04T06:16:49.772Z,11.02
2019-03-04T06:19:21.270Z,11.12
2019-03-04T06:21:51.798Z,11.14
2019-03-04T06:24:22.226Z,11.14
2019-03-04T06:26:54.705Z,11.17
2019-03-04T06:29:27.510Z,11.19
2019-03-04T06:31:59.658Z,11.15
2019-03-04T06:34:30.194Z,11.09
2019-03-04T06:37:00.519Z,11.21
2019-03-04T06:39:31.260Z,11.18
2019-03-04T06:42:02.613Z,11.27
2019-03-04T06:44:33.247Z,11.30
2019-03-04T06:47:05.519Z,11.34
2019-03-04T06:49:38.580Z,11.53
2019-03-04T06:52:08.876Z,11.62
2019-03-04T06:55:27.195Z,11.81
2019-03-04T06:57:57.941Z,11.83
2019-03-04T07:01:02.201Z,11.94
2019-03-04T07:03:42.854Z,11.94
2019-03-04T07:06:14.839Z,12.05
2019-03-04T07:09:16.969Z,12.08
2019-03-04T07:11:49.117Z,12.14
2019-03-04T07:14:20.814Z,12.23
2019-03-04T07:16:52.922Z,12.22
2019-03-04T07:19:33.550Z,12.22
2019-03-04T07:22:03.956Z,12.13
2019-03-04T07:24:53.654Z,12.16
2019-03-04T07:27:24.921Z,12.21
2019-03-04T07:29:55.359Z,12.19
2019-03-04T07:32:25.436Z,12.16
2019-03-04T07:34:55.588Z,12.15
2019-03-04T07:37:25.993Z,12.27
2019-03-04T07:39:56.403Z,12.25
2019-03-04T07:42:31.269Z,12.31
2019-03-04T07:45:01.944Z,12.44
2019-03-04T07:47:32.202Z,13.04
2019-03-04T07:50:03.781Z,12.80
2019-03-04T07:52:36.069Z,12.69
2019-03-04T07:55:06.390Z,12.76
2019-03-04T07:57:38.564Z,12.74
2019-03-04T08:00:09.463Z,13.00
2019-03-04T08:02:41.167Z,13.81
2019-03-04T08:05:11.902Z,13.68
2019-03-04T08:07:48.937Z,14.59
2019-03-04T08:11:02.607Z,14.40
2019-03-04T08:13:48.502Z,14.70
2019-03-04T08:16:18.929Z,15.75
2019-03-04T08:18:49.355Z,15.32
2019-03-04T08:21:20.090Z,14.54
2019-03-04T08:23:51.434Z,14.32
2019-03-04T08:26:23.607Z,14.00
2019-03-04T08:28:54.241Z,13.95
2019-03-04T08:31:24.671Z,13.79
2019-03-04T08:33:56.339Z,13.53
2019-03-04T08:36:26.763Z,13.34
2019-03-04T08:38:57.196Z,13.23
2019-03-04T08:41:27.419Z,11.08
2019-03-04T08:43:57.752Z,10.32
2019-03-04T08:46:28.179Z,9.95
2019-03-04T08:48:59.374Z,9.60
2019-03-04T08:51:30.883Z,9.31
2019-03-04T08:54:02.171Z,9.03
2019-03-04T08:56:32.498Z,8.90
2019-03-04T08:59:04.429Z,8.77
2019-03-04T09:01:35.852Z,8.65
2019-03-04T09:04:06.618Z,8.59
2019-03-04T09:06:39.198Z,8.71
2019-03-04T09:09:10.654Z,8.79
2019-03-04T09:11:41.055Z,8.79
2019-03-04T09:14:11.724Z,8.90
2019-03-04T09:16:43.625Z,8.89
2019-03-04T09:19:15.071Z,8.93
2019-03-04T09:21:45.468Z,8.87
2019-03-04T09:24:15.797Z,8.93
2019-03-04T09:26:46.286Z,8.90
2019-03-04T09:29:16.749Z,8.99
2019-03-04T09:31:47.284Z,9.16
2019-03-04T09:34:17.621Z,9.17
2019-03-04T09:36:49.690Z,9.28
2019-03-04T09:39:21.287Z,9.36
2019-03-04T09:41:56.513Z,9.44
2019-03-04T09:44:26.791Z,9.37
2019-03-04T09:46:58.924Z,9.41
2019-03-04T09:49:29.173Z,9.46
2019-03-04T09:52:01.215Z,9.45
2019-03-04T09:54:33.353Z,9.43
2019-03-04T09:57:04.500Z,9.41
2019-03-04T09:59:37.177Z,9.43
2019-03-04T10:02:19.479Z,9.53
2019-03-04T10:05:41.182Z,9.54
2019-03-04T10:09:04.834Z,9.64
2019-03-04T10:12:57.430Z,10.62
2019-03-04T10:16:04.600Z,10.82
2019-03-04T10:19:09.541Z,10.87
2019-03-04T10:22:11.276Z,10.96
2019-03-04T10:25:38.704Z,10.92
2019-03-04T10:29:03.871Z,10.92
2019-03-04T10:32:39.957Z,11.00
2019-03-04T10:36:18.896Z,10.85
2019-03-04T10:39:35.629Z,10.91
2019-03-04T10:42:45.918Z,10.85
2019-03-04T10:45:59.436Z,10.96
2019-03-04T10:48:30.822Z,11.34
2019-03-04T10:51:02.145Z,11.93
2019-03-04T10:53:32.368Z,12.30
2019-03-04T10:56:04.117Z,12.52
2019-03-04T10:58:34.806Z,12.59
2019-03-04T11:01:06.452Z,12.82
2019-03-04T11:03:36.644Z,12.94
2019-03-04T11:06:09.326Z,13.19
2019-03-04T11:08:40.371Z,13.36
2019-03-04T11:11:13.027Z,12.98
2019-03-04T11:13:43.943Z,12.77
2019-03-04T11:16:14.636Z,12.70
2019-03-04T11:18:47.420Z,12.85
2019-03-04T11:21:17.732Z,12.54
2019-03-04T11:23:49.205Z,12.96
2019-03-04T11:26:22.474Z,12.84
2019-03-04T11:28:54.009Z,12.96
2019-03-04T11:31:24.431Z,12.96
2019-03-04T11:33:54.976Z,12.79
2019-03-04T11:36:28.143Z,12.64
2019-03-04T11:39:10.308Z,12.47
2019-03-04T11:41:40.842Z,12.32
2019-03-04T11:44:12.958Z,12.41
2019-03-04T11:46:44.989Z,12.44
2019-03-04T11:49:16.737Z,12.78
2019-03-04T11:51:48.636Z,12.78
2019-03-04T11:54:20.182Z,13.12
2019-03-04T11:56:51.479Z,13.34
2019-03-04T11:59:21.632Z,13.34
2019-03-04T12:01:53.687Z,13.24
2019-03-04T12:04:25.064Z,13.00
2019-03-04T12:06:55.675Z,12.75
2019-03-04T12:09:26.222Z,12.50
2019-03-04T12:11:56.441Z,12.12
2019-03-04T12:14:27.714Z,11.67
2019-03-04T12:16:58.968Z,11.10
2019-03-04T12:19:32.563Z,10.80
2019-03-04T12:22:04.069Z,10.68
2019-03-04T12:24:34.437Z,10.92
2019-03-04T12:27:05.793Z,11.26
2019-03-04T12:29:36.337Z,11.53
2019-03-04T12:32:28.957Z,11.58
2019-03-04T12:35:00.820Z,11.82
2019-03-04T12:37:32.638Z,11.74
2019-03-04T12:40:04.839Z,11.48
2019-03-04T12:42:35.146Z,11.40
2019-03-04T12:45:08.867Z,11.48
2019-03-04T12:47:40.761Z,11.43
2019-03-04T12:50:15.007Z,11.61
2019-03-04T12:52:45.921Z,11.71
2019-03-04T12:55:16.336Z,11.86
2019-03-04T12:57:48.754Z,11.63
2019-03-04T13:00:20.891Z,11.70
2019-03-04T13:02:57.723Z,11.80
2019-03-04T13:05:24.952Z,11.85
2019-03-04T13:07:55.322Z,12.15
2019-03-04T13:10:27.730Z,12.00
2019-03-04T13:12:59.288Z,11.91
2019-03-04T13:15:29.516Z,11.79
2019-03-04T13:18:02.652Z,11.63
2019-03-04T13:20:34.475Z,11.42
2019-03-04T13:23:07.027Z,11.34
2019-03-04T13:25:37.810Z,11.15
2019-03-04T13:28:08.812Z,10.32
2019-03-04T13:30:41.723Z,9.09
2019-03-04T13:33:12.133Z,8.35
2019-03-04T13:35:42.935Z,7.82
2019-03-04T13:38:13.315Z,7.58
2019-03-04T13:40:43.660Z,7.36
2019-03-04T13:43:20.327Z,7.27
2019-03-04T13:45:51.812Z,7.16
2019-03-04T13:48:22.253Z,7.31
2019-03-04T13:50:52.753Z,7.28
2019-03-04T13:53:23.069Z,7.35
2019-03-04T13:55:55.863Z,7.54
2019-03-04T13:58:26.267Z,7.54
2019-03-04T14:00:58.405Z,7.82
2019-03-04T14:03:29.860Z,7.98
2019-03-04T14:06:00.021Z,8.16
2019-03-04T14:08:30.676Z,8.26
2019-03-04T14:11:03.170Z,8.48
2019-03-04T14:13:33.595Z,8.41
2019-03-04T14:16:04.287Z,8.31
2019-03-04T14:18:34.761Z,8.21
2019-03-04T14:21:05.257Z,8.42
2019-03-04T14:23:35.703Z,8.59
2019-03-04T14:26:05.945Z,8.59
2019-03-04T14:28:36.074Z,8.40
2019-03-04T14:31:06.107Z,8.43
2019-03-04T14:33:37.522Z,8.50
2019-03-04T14:36:07.903Z,8.52
2019-03-04T14:38:38.381Z,8.50
2019-03-04T14:41:08.746Z,8.56
2019-03-04T14:43:38.835Z,8.55
2019-03-04T14:46:20.418Z,8.38
2019-03-04T14:48:50.641Z,8.28
2019-03-04T14:51:21.090Z,8.08
2019-03-04T14:53:51.623Z,8.02
2019-03-04T14:56:23.906Z,8.01
2019-03-04T14:59:09.720Z,8.06
2019-03-04T15:01:26.811Z,8.05
2019-03-04T15:03:57.156Z,7.95
2019-03-04T15:06:27.440Z,7.96
2019-03-04T15:08:58.276Z,8.10
2019-03-04T15:11:28.625Z,8.25
2019-03-04T15:14:00.075Z,8.23
2019-03-04T15:16:32.262Z,8.19
2019-03-04T15:19:02.785Z,8.25
2019-03-04T15:21:34.143Z,8.30
2019-03-04T15:24:06.565Z,8.46
2019-03-04T15:26:43.881Z,8.30
2019-03-04T15:29:10.665Z,8.50
2019-03-04T15:31:41.064Z,8.48
2019-03-04T15:34:11.548Z,8.40
2019-03-04T15:36:41.832Z,8.41
2019-03-04T15:39:22.984Z,8.38
2019-03-04T15:41:50.365Z,8.40
2019-03-04T15:44:23.063Z,8.36
2019-03-04T15:46:53.398Z,8.26
2019-03-04T15:49:25.077Z,8.24
2019-03-04T15:51:55.275Z,8.27
2019-03-04T15:54:27.037Z,8.24
2019-03-04T15:57:03.357Z,8.19
2019-03-04T15:59:34.350Z,8.28
2019-03-04T16:02:08.316Z,8.24
2019-03-04T16:04:40.476Z,8.24
2019-03-04T16:07:12.212Z,8.25
2019-03-04T16:09:44.376Z,8.18
2019-03-04T16:12:18.011Z,8.17
2019-03-04T16:14:49.376Z,8.16
2019-03-04T16:17:19.837Z,8.18
2019-03-04T16:19:50.374Z,8.20
2019-03-04T16:22:20.735Z,8.16
2019-03-04T16:24:52.612Z,8.18
2019-03-04T16:27:25.791Z,8.18
2019-03-04T16:29:59.064Z,8.16
2019-03-04T16:32:30.012Z,8.22
2019-03-04T16:35:00.568Z,8.16
2019-03-04T16:37:32.709Z,8.13
2019-03-04T16:40:03.500Z,8.17
2019-03-04T16:42:35.577Z,8.16
2019-03-04T16:45:07.015Z,8.20
2019-03-04T16:47:39.521Z,8.21
2019-03-04T16:50:11.793Z,8.06
2019-03-04T16:52:43.714Z,8.09
2019-03-04T16:55:15.654Z,8.07
2019-03-04T16:57:46.014Z,8.13
2019-03-04T17:00:18.769Z,8.18
2019-03-04T17:02:50.534Z,8.14
2019-03-04T17:05:22.533Z,8.16
2019-03-04T17:07:53.162Z,8.08
2019-03-04T17:10:23.966Z,8.19
2019-03-04T17:12:55.209Z,8.09
2019-03-04T17:15:25.569Z,8.12
2019-03-04T17:17:56.168Z,8.17
2019-03-04T17:20:26.566Z,8.17
2019-03-04T17:22:59.193Z,8.10
2019-03-04T17:25:29.544Z,8.05
2019-03-04T17:28:01.038Z,8.00
2019-03-04T17:30:32.498Z,8.05
2019-03-04T17:33:02.857Z,7.93
2019-03-04T17:35:33.480Z,7.87
2019-03-04T17:38:05.563Z,7.85
2019-03-04T17:40:35.860Z,7.82
2019-03-04T17:43:06.408Z,7.80
2019-03-04T17:45:36.906Z,7.71
2019-03-04T17:48:07.742Z,7.74
2019-03-04T17:50:40.647Z,7.72
2019-03-04T17:53:14.698Z,7.60
2019-03-04T17:55:46.107Z,7.51
2019-03-04T17:58:16.433Z,7.52
2019-03-04T18:00:51.515Z,7.49
2019-03-04T18:03:24.205Z,7.43
2019-03-04T18:05:56.060Z,7.40
2019-03-04T18:08:26.382Z,7.42
2019-03-04T18:10:56.822Z,7.30
2019-03-04T18:13:27.362Z,7.27
2019-03-04T18:15:58.185Z,7.20
2019-03-04T18:18:28.728Z,7.27
2019-03-04T18:21:02.914Z,7.26
2019-03-04T18:23:33.807Z,7.25
2019-03-04T18:26:14.265Z,7.19
2019-03-04T18:29:53.756Z,7.31
2019-03-04T18:33:40.443Z,7.37
2019-03-04T18:36:59.673Z,7.34
2019-03-04T18:40:37.177Z,7.33
2019-03-04T18:44:11.619Z,7.29
2019-03-04T18:47:32.012Z,7.34
2019-03-04T18:50:02.437Z,7.27
2019-03-04T18:52:34.078Z,7.28
2019-03-04T18:55:05.025Z,7.28
2019-03-04T18:57:37.293Z,7.18
2019-03-04T19:00:14.077Z,7.22
2019-03-04T19:02:52.597Z,7.18
2019-03-04T19:05:25.070Z,7.21
2019-03-04T19:07:56.826Z,7.28
2019-03-04T19:10:28.070Z,7.23
2019-03-04T19:13:01.125Z,7.22
2019-03-04T19:15:31.959Z,7.09
2019-03-04T19:18:02.723Z,7.10
2019-03-04T19:20:34.812Z,7.05
2019-03-04T19:23:05.220Z,7.07
2019-03-04T19:25:36.729Z,7.04
2019-03-04T19:28:07.108Z,7.06
2019-03-04T19:30:39.294Z,7.00
2019-03-04T19:33:09.521Z,6.99
2019-03-04T19:35:40.230Z,6.99
2019-03-04T19:38:10.845Z,6.97
2019-03-04T19:40:41.434Z,6.83
2019-03-04T19:43:11.846Z,6.82
2019-03-04T19:45:43.016Z,6.84
2019-03-04T19:48:15.452Z,6.83
2019-03-04T19:50:46.604Z,6.86
2019-03-04T19:53:17.641Z,6.94
2019-03-04T19:55:48.490Z,6.95
2019-03-04T19:58:19.502Z,6.90
2019-03-04T20:00:52.338Z,6.87
2019-03-04T20:03:22.850Z,6.81
2019-03-04T20:05:54.272Z,6.74
2019-03-04T20:08:24.970Z,6.73
2019-03-04T20:10:58.806Z,6.64
2019-03-04T20:13:31.569Z,6.62
2019-03-04T20:16:05.600Z,6.52
2019-03-04T20:18:38.510Z,6.56
2019-03-04T20:21:09.716Z,6.57
2019-03-04T20:23:40.342Z,6.64
2019-03-04T20:26:13.234Z,6.68
2019-03-04T20:28:44.765Z,6.75
2019-03-04T20:31:16.756Z,6.74
2019-03-04T20:33:47.711Z,6.78
2019-03-04T20:36:19.868Z,6.82
2019-03-04T20:38:50.953Z,6.87
2019-03-04T20:41:21.575Z,6.93
2019-03-04T20:43:55.300Z,6.97
2019-03-04T20:46:25.895Z,6.94
2019-03-04T20:48:56.282Z,6.83
2019-03-04T20:51:26.901Z,6.83
2019-03-04T20:53:57.556Z,6.85
2019-03-04T20:56:27.985Z,6.77
2019-03-04T20:58:59.212Z,6.63
2019-03-04T21:01:29.913Z,6.67
2019-03-04T21:04:01.984Z,6.65
2019-03-04T21:06:33.489Z,6.67
2019-03-04T21:09:06.163Z,6.66
2019-03-04T21:11:36.577Z,6.68
2019-03-04T21:14:07.219Z,6.77
2019-03-04T21:16:38.051Z,6.90
2019-03-04T21:19:10.702Z,6.94
2019-03-04T21:21:41.362Z,6.93
2019-03-04T21:24:11.751Z,7.00
2019-03-04T21:26:49.005Z,7.05
2019-03-04T21:30:07.893Z,7.07
2019-03-04T21:33:07.179Z,7.00
2019-03-04T21:36:36.785Z,7.06
2019-03-04T21:39:07.677Z,7.14
2019-03-04T21:41:59.909Z,7.07
2019-03-04T21:45:33.637Z,7.07
2019-03-04T21:48:37.596Z,7.02
2019-03-04T21:51:41.498Z,6.94
2019-03-04T21:54:13.726Z,6.97
2019-03-04T21:57:32.086Z,6.86
2019-03-04T22:00:04.229Z,6.85
2019-03-04T22:02:52.210Z,6.77
2019-03-04T22:05:24.482Z,6.68
2019-03-04T22:07:54.651Z,6.71
2019-03-04T22:10:24.743Z,6.73
2019-03-04T22:12:57.206Z,6.74
2019-03-04T22:15:27.532Z,6.70
2019-03-04T22:17:59.088Z,6.86
2019-03-04T22:20:29.507Z,6.91
2019-03-04T22:23:00.154Z,6.89
2019-03-04T22:25:30.889Z,6.93
2019-03-04T22:28:01.900Z,6.96
2019-03-04T22:30:34.656Z,7.00
2019-03-04T22:33:06.405Z,7.03
2019-03-04T22:35:36.897Z,7.08
2019-03-04T22:38:07.641Z,7.15
2019-03-04T22:40:37.981Z,7.09
2019-03-04T22:43:08.515Z,7.15
2019-03-04T22:45:41.207Z,7.16
2019-03-04T22:48:11.610Z,7.15
2019-03-04T22:50:42.199Z,7.11
2019-03-04T22:53:12.557Z,7.17
2019-03-04T22:55:44.903Z,7.20
2019-03-04T22:58:27.814Z,7.19
2019-03-04T23:01:38.438Z,7.18
2019-03-04T23:04:23.988Z,7.15
2019-03-04T23:07:35.573Z,7.06
2019-03-04T23:10:37.351Z,7.03
2019-03-04T23:14:00.845Z,7.11
2019-03-04T23:16:33.423Z,7.05
2019-03-04T23:19:09.688Z,7.00
2019-03-04T23:21:42.885Z,6.94
2019-03-04T23:24:13.108Z,6.86
2019-03-04T23:26:43.566Z,6.82
2019-03-04T23:29:17.456Z,6.75
2019-03-04T23:31:49.543Z,6.70
2019-03-04T23:34:19.864Z,6.64
2019-03-04T23:36:51.335Z,6.68
2019-03-04T23:39:22.856Z,6.63
2019-03-04T23:41:54.666Z,6.59
2019-03-04T23:44:25.971Z,6.46
2019-03-04T23:46:57.882Z,6.57
2019-03-04T23:49:30.067Z,6.54
2019-03-04T23:52:03.300Z,6.53
2019-03-04T23:54:33.787Z,6.48
2019-03-04T23:57:03.957Z,6.53
2019-03-04T23:59:34.878Z,6.48
